sensor_id;sensor_type;location;lat;lon;timestamp;P1;durP1;ratioP1;P2;durP2;ratioP2
11616;SDS011;5864;52.998;9.068;2022-11-14T00:00:54;45.13;;;26.57;;
11616;SDS011;5864;52.998;9.068;2022-11-14T00:03:21;44.10;;;27.23;;
11616;SDS011;5864;52.998;9.068;2022-11-14T00:05:49;45.70;;;25.87;;
11616;SDS011;5864;52.998;9.068;2022-11-14T00:08:17;39.50;;;24.57;;
11616;SDS011;5864;52.998;9.068;2022-11-14T00:10:46;47.07;;;27.10;;
11616;SDS011;5864;52.998;9.068;2022-11-14T00:13:17;42.80;;;25.87;;
11616;SDS011;5864;52.998;9.068;2022-11-14T00:15:47;44.03;;;25.57;;
11616;SDS011;5864;52.998;9.068;2022-11-14T00:18:15;41.80;;;25.63;;
11616;SDS011;5864;52.998;9.068;2022-11-14T00:20:43;41.10;;;26.27;;
11616;SDS011;5864;52.998;9.068;2022-11-14T00:23:13;40.93;;;26.10;;
11616;SDS011;5864;52.998;9.068;2022-11-14T00:25:41;44.90;;;26.47;;
11616;SDS011;5864;52.998;9.068;2022-11-14T00:28:09;43.60;;;25.17;;
11616;SDS011;5864;52.998;9.068;2022-11-14T00:30:38;41.10;;;24.73;;
11616;SDS011;5864;52.998;9.068;2022-11-14T00:33:05;38.13;;;24.10;;
11616;SDS011;5864;52.998;9.068;2022-11-14T00:35:33;43.80;;;25.07;;
11616;SDS011;5864;52.998;9.068;2022-11-14T00:38:00;41.73;;;25.10;;
11616;SDS011;5864;52.998;9.068;2022-11-14T00:40:28;37.87;;;23.90;;
11616;SDS011;5864;52.998;9.068;2022-11-14T00:42:55;41.03;;;25.77;;
11616;SDS011;5864;52.998;9.068;2022-11-14T00:45:22;42.03;;;24.30;;
11616;SDS011;5864;52.998;9.068;2022-11-14T00:47:51;41.10;;;24.63;;
11616;SDS011;5864;52.998;9.068;2022-11-14T00:50:19;41.20;;;23.97;;
11616;SDS011;5864;52.998;9.068;2022-11-14T00:52:46;36.57;;;23.47;;
11616;SDS011;5864;52.998;9.068;2022-11-14T00:55:14;38.40;;;22.57;;
11616;SDS011;5864;52.998;9.068;2022-11-14T00:57:41;40.50;;;24.10;;
11616;SDS011;5864;52.998;9.068;2022-11-14T01:00:10;38.27;;;24.23;;
11616;SDS011;5864;52.998;9.068;2022-11-14T01:02:40;39.13;;;24.27;;
11616;SDS011;5864;52.998;9.068;2022-11-14T01:05:09;39.13;;;23.53;;
11616;SDS011;5864;52.998;9.068;2022-11-14T01:07:36;39.53;;;23.33;;
11616;SDS011;5864;52.998;9.068;2022-11-14T01:10:04;40.10;;;23.40;;
11616;SDS011;5864;52.998;9.068;2022-11-14T01:12:32;38.40;;;23.57;;
11616;SDS011;5864;52.998;9.068;2022-11-14T01:15:00;39.03;;;23.50;;
11616;SDS011;5864;52.998;9.068;2022-11-14T01:17:27;36.10;;;22.10;;
11616;SDS011;5864;52.998;9.068;2022-11-14T01:19:55;37.30;;;23.53;;
11616;SDS011;5864;52.998;9.068;2022-11-14T01:22:24;41.00;;;24.03;;
11616;SDS011;5864;52.998;9.068;2022-11-14T01:24:51;37.40;;;23.20;;
11616;SDS011;5864;52.998;9.068;2022-11-14T01:27:22;39.03;;;23.63;;
11616;SDS011;5864;52.998;9.068;2022-11-14T01:29:50;37.00;;;22.80;;
11616;SDS011;5864;52.998;9.068;2022-11-14T01:32:17;37.47;;;23.00;;
11616;SDS011;5864;52.998;9.068;2022-11-14T01:34:45;38.07;;;23.60;;
11616;SDS011;5864;52.998;9.068;2022-11-14T01:37:12;37.27;;;22.90;;
11616;SDS011;5864;52.998;9.068;2022-11-14T01:39:41;37.33;;;21.33;;
11616;SDS011;5864;52.998;9.068;2022-11-14T01:42:09;33.93;;;21.53;;
11616;SDS011;5864;52.998;9.068;2022-11-14T01:44:37;37.57;;;22.57;;
11616;SDS011;5864;52.998;9.068;2022-11-14T01:47:12;37.60;;;21.57;;
11616;SDS011;5864;52.998;9.068;2022-11-14T01:49:44;40.80;;;23.60;;
11616;SDS011;5864;52.998;9.068;2022-11-14T01:52:15;39.13;;;22.40;;
11616;SDS011;5864;52.998;9.068;2022-11-14T01:54:47;35.47;;;22.57;;
11616;SDS011;5864;52.998;9.068;2022-11-14T01:57:17;37.27;;;23.00;;
11616;SDS011;5864;52.998;9.068;2022-11-14T01:59:46;40.40;;;23.20;;
11616;SDS011;5864;52.998;9.068;2022-11-14T02:02:17;36.53;;;22.30;;
11616;SDS011;5864;52.998;9.068;2022-11-14T02:04:48;39.53;;;23.47;;
11616;SDS011;5864;52.998;9.068;2022-11-14T02:07:19;37.07;;;22.90;;
11616;SDS011;5864;52.998;9.068;2022-11-14T02:09:48;37.57;;;23.07;;
11616;SDS011;5864;52.998;9.068;2022-11-14T02:12:16;42.67;;;23.53;;
11616;SDS011;5864;52.998;9.068;2022-11-14T02:14:45;37.07;;;23.33;;
11616;SDS011;5864;52.998;9.068;2022-11-14T02:17:15;37.33;;;23.40;;
11616;SDS011;5864;52.998;9.068;2022-11-14T02:19:45;37.03;;;22.30;;
11616;SDS011;5864;52.998;9.068;2022-11-14T02:22:16;39.33;;;23.60;;
11616;SDS011;5864;52.998;9.068;2022-11-14T02:24:44;38.90;;;23.57;;
11616;SDS011;5864;52.998;9.068;2022-11-14T02:27:12;38.97;;;22.27;;
11616;SDS011;5864;52.998;9.068;2022-11-14T02:29:41;39.17;;;22.57;;
11616;SDS011;5864;52.998;9.068;2022-11-14T02:32:08;36.27;;;22.90;;
11616;SDS011;5864;52.998;9.068;2022-11-14T02:34:36;40.63;;;23.33;;
11616;SDS011;5864;52.998;9.068;2022-11-14T02:37:04;36.37;;;23.23;;
11616;SDS011;5864;52.998;9.068;2022-11-14T02:39:33;32.97;;;21.10;;
11616;SDS011;5864;52.998;9.068;2022-11-14T02:42:00;34.87;;;21.80;;
11616;SDS011;5864;52.998;9.068;2022-11-14T02:44:28;36.63;;;22.50;;
11616;SDS011;5864;52.998;9.068;2022-11-14T02:46:55;39.20;;;22.77;;
11616;SDS011;5864;52.998;9.068;2022-11-14T02:49:23;41.50;;;24.70;;
11616;SDS011;5864;52.998;9.068;2022-11-14T02:51:50;38.47;;;23.30;;
11616;SDS011;5864;52.998;9.068;2022-11-14T02:54:18;36.47;;;22.03;;
11616;SDS011;5864;52.998;9.068;2022-11-14T02:56:46;35.23;;;21.60;;
11616;SDS011;5864;52.998;9.068;2022-11-14T02:59:14;36.60;;;22.23;;
11616;SDS011;5864;52.998;9.068;2022-11-14T03:01:41;42.70;;;23.50;;
11616;SDS011;5864;52.998;9.068;2022-11-14T03:04:09;39.60;;;23.07;;
11616;SDS011;5864;52.998;9.068;2022-11-14T03:06:37;37.80;;;22.73;;
11616;SDS011;5864;52.998;9.068;2022-11-14T03:09:04;38.43;;;23.10;;
11616;SDS011;5864;52.998;9.068;2022-11-14T03:11:32;39.57;;;22.83;;
11616;SDS011;5864;52.998;9.068;2022-11-14T03:14:01;39.70;;;22.80;;
11616;SDS011;5864;52.998;9.068;2022-11-14T03:16:28;38.07;;;22.50;;
11616;SDS011;5864;52.998;9.068;2022-11-14T03:18:55;40.93;;;23.33;;
11616;SDS011;5864;52.998;9.068;2022-11-14T03:21:23;37.57;;;22.50;;
11616;SDS011;5864;52.998;9.068;2022-11-14T03:23:50;38.77;;;22.97;;
11616;SDS011;5864;52.998;9.068;2022-11-14T03:26:18;41.23;;;23.47;;
11616;SDS011;5864;52.998;9.068;2022-11-14T03:28:45;39.73;;;22.30;;
11616;SDS011;5864;52.998;9.068;2022-11-14T03:31:14;43.57;;;23.53;;
11616;SDS011;5864;52.998;9.068;2022-11-14T03:33:42;38.17;;;22.30;;
11616;SDS011;5864;52.998;9.068;2022-11-14T03:36:09;40.37;;;23.30;;
11616;SDS011;5864;52.998;9.068;2022-11-14T03:38:36;39.97;;;24.00;;
11616;SDS011;5864;52.998;9.068;2022-11-14T03:41:04;39.80;;;23.40;;
11616;SDS011;5864;52.998;9.068;2022-11-14T03:43:32;42.73;;;24.30;;
11616;SDS011;5864;52.998;9.068;2022-11-14T03:46:00;41.80;;;23.40;;
11616;SDS011;5864;52.998;9.068;2022-11-14T03:48:30;39.37;;;23.03;;
11616;SDS011;5864;52.998;9.068;2022-11-14T03:50:57;42.90;;;25.03;;
11616;SDS011;5864;52.998;9.068;2022-11-14T03:53:25;40.60;;;24.23;;
11616;SDS011;5864;52.998;9.068;2022-11-14T03:55:53;39.53;;;23.40;;
11616;SDS011;5864;52.998;9.068;2022-11-14T03:58:21;37.97;;;23.60;;
11616;SDS011;5864;52.998;9.068;2022-11-14T04:00:48;40.93;;;23.07;;
11616;SDS011;5864;52.998;9.068;2022-11-14T04:03:16;44.03;;;25.17;;
11616;SDS011;5864;52.998;9.068;2022-11-14T04:05:44;40.87;;;23.93;;
11616;SDS011;5864;52.998;9.068;2022-11-14T04:08:12;41.83;;;24.27;;
11616;SDS011;5864;52.998;9.068;2022-11-14T04:10:39;41.07;;;23.77;;
11616;SDS011;5864;52.998;9.068;2022-11-14T04:13:07;41.77;;;24.67;;
11616;SDS011;5864;52.998;9.068;2022-11-14T04:15:35;39.67;;;23.70;;
11616;SDS011;5864;52.998;9.068;2022-11-14T04:18:02;39.50;;;23.23;;
11616;SDS011;5864;52.998;9.068;2022-11-14T04:20:30;42.27;;;24.33;;
11616;SDS011;5864;52.998;9.068;2022-11-14T04:22:59;46.83;;;25.57;;
11616;SDS011;5864;52.998;9.068;2022-11-14T04:25:26;41.60;;;23.87;;
11616;SDS011;5864;52.998;9.068;2022-11-14T04:27:54;43.03;;;23.10;;
11616;SDS011;5864;52.998;9.068;2022-11-14T04:30:21;41.63;;;24.43;;
11616;SDS011;5864;52.998;9.068;2022-11-14T04:32:49;42.63;;;24.30;;
11616;SDS011;5864;52.998;9.068;2022-11-14T04:35:17;37.43;;;22.60;;
11616;SDS011;5864;52.998;9.068;2022-11-14T04:37:45;41.30;;;23.67;;
11616;SDS011;5864;52.998;9.068;2022-11-14T04:40:14;43.77;;;24.07;;
11616;SDS011;5864;52.998;9.068;2022-11-14T04:42:41;43.63;;;22.93;;
11616;SDS011;5864;52.998;9.068;2022-11-14T04:45:09;41.43;;;23.90;;
11616;SDS011;5864;52.998;9.068;2022-11-14T04:47:36;46.83;;;24.40;;
11616;SDS011;5864;52.998;9.068;2022-11-14T04:50:04;45.70;;;25.07;;
11616;SDS011;5864;52.998;9.068;2022-11-14T04:52:32;39.73;;;23.67;;
11616;SDS011;5864;52.998;9.068;2022-11-14T04:55:00;42.40;;;24.17;;
11616;SDS011;5864;52.998;9.068;2022-11-14T04:57:29;40.90;;;23.93;;
11616;SDS011;5864;52.998;9.068;2022-11-14T04:59:56;41.70;;;23.13;;
11616;SDS011;5864;52.998;9.068;2022-11-14T05:02:23;42.60;;;23.80;;
11616;SDS011;5864;52.998;9.068;2022-11-14T05:04:51;44.00;;;25.10;;
11616;SDS011;5864;52.998;9.068;2022-11-14T05:07:18;42.60;;;24.40;;
11616;SDS011;5864;52.998;9.068;2022-11-14T05:09:46;42.50;;;23.87;;
11616;SDS011;5864;52.998;9.068;2022-11-14T05:12:14;40.80;;;23.47;;
11616;SDS011;5864;52.998;9.068;2022-11-14T05:14:43;43.80;;;23.93;;
11616;SDS011;5864;52.998;9.068;2022-11-14T05:17:11;44.57;;;24.47;;
11616;SDS011;5864;52.998;9.068;2022-11-14T05:19:45;37.77;;;22.13;;
11616;SDS011;5864;52.998;9.068;2022-11-14T05:22:12;44.17;;;25.07;;
11616;SDS011;5864;52.998;9.068;2022-11-14T05:24:40;44.77;;;24.97;;
11616;SDS011;5864;52.998;9.068;2022-11-14T05:27:08;44.53;;;25.40;;
11616;SDS011;5864;52.998;9.068;2022-11-14T05:29:35;41.60;;;24.47;;
11616;SDS011;5864;52.998;9.068;2022-11-14T05:32:04;45.57;;;24.63;;
11616;SDS011;5864;52.998;9.068;2022-11-14T05:34:32;41.10;;;24.33;;
11616;SDS011;5864;52.998;9.068;2022-11-14T05:36:59;45.30;;;25.47;;
11616;SDS011;5864;52.998;9.068;2022-11-14T05:39:28;42.80;;;24.73;;
11616;SDS011;5864;52.998;9.068;2022-11-14T05:41:56;43.30;;;25.43;;
11616;SDS011;5864;52.998;9.068;2022-11-14T05:44:23;41.33;;;25.47;;
11616;SDS011;5864;52.998;9.068;2022-11-14T05:46:50;40.33;;;23.63;;
11616;SDS011;5864;52.998;9.068;2022-11-14T05:49:19;45.07;;;24.20;;
11616;SDS011;5864;52.998;9.068;2022-11-14T05:51:47;43.43;;;24.53;;
11616;SDS011;5864;52.998;9.068;2022-11-14T05:54:14;44.53;;;24.90;;
11616;SDS011;5864;52.998;9.068;2022-11-14T05:56:42;48.37;;;26.57;;
11616;SDS011;5864;52.998;9.068;2022-11-14T05:59:09;46.03;;;24.97;;
11616;SDS011;5864;52.998;9.068;2022-11-14T06:01:37;47.00;;;25.87;;
11616;SDS011;5864;52.998;9.068;2022-11-14T06:04:04;48.20;;;26.53;;
11616;SDS011;5864;52.998;9.068;2022-11-14T06:06:34;45.13;;;24.87;;
11616;SDS011;5864;52.998;9.068;2022-11-14T06:09:01;44.83;;;25.33;;
11616;SDS011;5864;52.998;9.068;2022-11-14T06:11:29;48.07;;;25.43;;
11616;SDS011;5864;52.998;9.068;2022-11-14T06:13:56;47.70;;;26.77;;
11616;SDS011;5864;52.998;9.068;2022-11-14T06:16:24;49.77;;;26.23;;
11616;SDS011;5864;52.998;9.068;2022-11-14T06:18:52;54.07;;;27.50;;
11616;SDS011;5864;52.998;9.068;2022-11-14T06:21:20;53.60;;;27.30;;
11616;SDS011;5864;52.998;9.068;2022-11-14T06:23:50;52.73;;;26.53;;
11616;SDS011;5864;52.998;9.068;2022-11-14T06:26:19;57.43;;;27.00;;
11616;SDS011;5864;52.998;9.068;2022-11-14T06:28:48;47.60;;;26.83;;
11616;SDS011;5864;52.998;9.068;2022-11-14T06:31:16;46.83;;;26.50;;
11616;SDS011;5864;52.998;9.068;2022-11-14T06:33:44;49.97;;;27.77;;
11616;SDS011;5864;52.998;9.068;2022-11-14T06:36:12;45.50;;;25.07;;
11616;SDS011;5864;52.998;9.068;2022-11-14T06:38:40;50.93;;;26.90;;
11616;SDS011;5864;52.998;9.068;2022-11-14T06:41:10;45.33;;;26.60;;
11616;SDS011;5864;52.998;9.068;2022-11-14T06:43:39;49.40;;;25.10;;
11616;SDS011;5864;52.998;9.068;2022-11-14T06:46:08;51.43;;;27.07;;
11616;SDS011;5864;52.998;9.068;2022-11-14T06:48:36;51.33;;;26.77;;
11616;SDS011;5864;52.998;9.068;2022-11-14T06:51:04;49.30;;;26.97;;
11616;SDS011;5864;52.998;9.068;2022-11-14T06:53:33;50.03;;;28.07;;
11616;SDS011;5864;52.998;9.068;2022-11-14T06:56:02;47.37;;;26.83;;
11616;SDS011;5864;52.998;9.068;2022-11-14T06:58:32;48.50;;;27.23;;
11616;SDS011;5864;52.998;9.068;2022-11-14T07:01:03;50.13;;;26.67;;
11616;SDS011;5864;52.998;9.068;2022-11-14T07:03:32;50.50;;;27.00;;
11616;SDS011;5864;52.998;9.068;2022-11-14T07:05:59;51.40;;;28.07;;
11616;SDS011;5864;52.998;9.068;2022-11-14T07:08:27;48.03;;;27.37;;
11616;SDS011;5864;52.998;9.068;2022-11-14T07:10:59;50.43;;;27.33;;
11616;SDS011;5864;52.998;9.068;2022-11-14T07:13:28;54.80;;;27.90;;
11616;SDS011;5864;52.998;9.068;2022-11-14T07:15:58;49.60;;;27.17;;
11616;SDS011;5864;52.998;9.068;2022-11-14T07:18:28;54.13;;;27.77;;
11616;SDS011;5864;52.998;9.068;2022-11-14T07:20:56;54.10;;;27.63;;
11616;SDS011;5864;52.998;9.068;2022-11-14T07:23:24;48.93;;;25.87;;
11616;SDS011;5864;52.998;9.068;2022-11-14T07:25:52;51.20;;;27.97;;
11616;SDS011;5864;52.998;9.068;2022-11-14T07:28:20;53.03;;;28.27;;
11616;SDS011;5864;52.998;9.068;2022-11-14T07:30:47;52.27;;;28.67;;
11616;SDS011;5864;52.998;9.068;2022-11-14T07:33:16;53.80;;;28.33;;
11616;SDS011;5864;52.998;9.068;2022-11-14T07:35:43;52.73;;;27.67;;
11616;SDS011;5864;52.998;9.068;2022-11-14T07:38:11;49.20;;;26.90;;
11616;SDS011;5864;52.998;9.068;2022-11-14T07:40:38;58.53;;;27.07;;
11616;SDS011;5864;52.998;9.068;2022-11-14T07:43:06;48.80;;;26.90;;
11616;SDS011;5864;52.998;9.068;2022-11-14T07:45:33;52.83;;;26.57;;
11616;SDS011;5864;52.998;9.068;2022-11-14T07:48:01;53.00;;;27.33;;
11616;SDS011;5864;52.998;9.068;2022-11-14T07:50:30;50.20;;;27.03;;
11616;SDS011;5864;52.998;9.068;2022-11-14T07:52:57;46.37;;;25.43;;
11616;SDS011;5864;52.998;9.068;2022-11-14T07:55:24;51.63;;;25.90;;
11616;SDS011;5864;52.998;9.068;2022-11-14T07:57:52;47.20;;;25.83;;
11616;SDS011;5864;52.998;9.068;2022-11-14T08:00:20;47.30;;;25.13;;
11616;SDS011;5864;52.998;9.068;2022-11-14T08:02:47;45.70;;;25.27;;
11616;SDS011;5864;52.998;9.068;2022-11-14T08:05:15;50.63;;;27.10;;
11616;SDS011;5864;52.998;9.068;2022-11-14T08:07:44;51.23;;;26.83;;
11616;SDS011;5864;52.998;9.068;2022-11-14T08:10:12;47.87;;;26.60;;
11616;SDS011;5864;52.998;9.068;2022-11-14T08:12:40;48.30;;;25.57;;
11616;SDS011;5864;52.998;9.068;2022-11-14T08:15:08;48.23;;;25.37;;
11616;SDS011;5864;52.998;9.068;2022-11-14T08:17:36;50.23;;;27.47;;
11616;SDS011;5864;52.998;9.068;2022-11-14T08:20:04;49.50;;;25.63;;
11616;SDS011;5864;52.998;9.068;2022-11-14T08:22:34;48.10;;;26.03;;
11616;SDS011;5864;52.998;9.068;2022-11-14T08:25:03;48.10;;;27.13;;
11616;SDS011;5864;52.998;9.068;2022-11-14T08:27:31;47.33;;;27.57;;
11616;SDS011;5864;52.998;9.068;2022-11-14T08:29:58;47.63;;;26.13;;
11616;SDS011;5864;52.998;9.068;2022-11-14T08:32:26;50.70;;;26.13;;
11616;SDS011;5864;52.998;9.068;2022-11-14T08:34:53;49.47;;;26.63;;
11616;SDS011;5864;52.998;9.068;2022-11-14T08:37:21;51.07;;;26.93;;
11616;SDS011;5864;52.998;9.068;2022-11-14T08:39:48;49.67;;;25.90;;
11616;SDS011;5864;52.998;9.068;2022-11-14T08:42:17;44.50;;;25.70;;
11616;SDS011;5864;52.998;9.068;2022-11-14T08:44:44;43.87;;;24.63;;
11616;SDS011;5864;52.998;9.068;2022-11-14T08:47:12;43.90;;;24.33;;
11616;SDS011;5864;52.998;9.068;2022-11-14T08:49:39;45.37;;;26.13;;
11616;SDS011;5864;52.998;9.068;2022-11-14T08:52:07;47.67;;;25.13;;
11616;SDS011;5864;52.998;9.068;2022-11-14T08:54:35;47.83;;;25.83;;
11616;SDS011;5864;52.998;9.068;2022-11-14T08:57:02;47.93;;;25.77;;
11616;SDS011;5864;52.998;9.068;2022-11-14T08:59:32;44.53;;;25.17;;
11616;SDS011;5864;52.998;9.068;2022-11-14T09:01:59;47.70;;;25.43;;
11616;SDS011;5864;52.998;9.068;2022-11-14T09:04:27;47.80;;;25.47;;
11616;SDS011;5864;52.998;9.068;2022-11-14T09:06:54;50.70;;;25.80;;
11616;SDS011;5864;52.998;9.068;2022-11-14T09:09:23;45.53;;;25.13;;
11616;SDS011;5864;52.998;9.068;2022-11-14T09:11:50;40.87;;;23.80;;
11616;SDS011;5864;52.998;9.068;2022-11-14T09:14:18;47.87;;;25.17;;
11616;SDS011;5864;52.998;9.068;2022-11-14T09:16:47;43.33;;;24.40;;
11616;SDS011;5864;52.998;9.068;2022-11-14T09:19:14;43.63;;;25.10;;
11616;SDS011;5864;52.998;9.068;2022-11-14T09:21:42;43.63;;;25.37;;
11616;SDS011;5864;52.998;9.068;2022-11-14T09:24:09;44.73;;;25.23;;
11616;SDS011;5864;52.998;9.068;2022-11-14T09:26:37;43.83;;;24.50;;
11616;SDS011;5864;52.998;9.068;2022-11-14T09:29:05;42.40;;;24.63;;
11616;SDS011;5864;52.998;9.068;2022-11-14T09:31:33;43.43;;;24.10;;
11616;SDS011;5864;52.998;9.068;2022-11-14T09:34:02;45.37;;;24.73;;
11616;SDS011;5864;52.998;9.068;2022-11-14T09:36:30;46.87;;;25.20;;
11616;SDS011;5864;52.998;9.068;2022-11-14T09:38:57;44.40;;;25.23;;
11616;SDS011;5864;52.998;9.068;2022-11-14T09:41:25;42.83;;;25.13;;
11616;SDS011;5864;52.998;9.068;2022-11-14T09:46:45;48.20;;;27.03;;
11616;SDS011;5864;52.998;9.068;2022-11-14T09:49:19;47.30;;;25.40;;
11616;SDS011;5864;52.998;9.068;2022-11-14T09:51:52;47.70;;;26.07;;
11616;SDS011;5864;52.998;9.068;2022-11-14T09:54:21;43.97;;;23.77;;
11616;SDS011;5864;52.998;9.068;2022-11-14T09:56:49;45.93;;;24.67;;
11616;SDS011;5864;52.998;9.068;2022-11-14T09:59:17;46.73;;;25.50;;
11616;SDS011;5864;52.998;9.068;2022-11-14T10:01:47;47.87;;;25.83;;
11616;SDS011;5864;52.998;9.068;2022-11-14T10:04:17;47.60;;;24.97;;
11616;SDS011;5864;52.998;9.068;2022-11-14T10:06:58;44.97;;;25.27;;
11616;SDS011;5864;52.998;9.068;2022-11-14T10:09:41;45.13;;;25.10;;
11616;SDS011;5864;52.998;9.068;2022-11-14T10:12:17;43.90;;;24.63;;
11616;SDS011;5864;52.998;9.068;2022-11-14T10:17:48;43.93;;;23.53;;
11616;SDS011;5864;52.998;9.068;2022-11-14T10:20:31;43.83;;;23.67;;
11616;SDS011;5864;52.998;9.068;2022-11-14T10:23:05;45.40;;;25.37;;
11616;SDS011;5864;52.998;9.068;2022-11-14T10:25:47;48.20;;;24.93;;
11616;SDS011;5864;52.998;9.068;2022-11-14T10:28:30;44.17;;;25.60;;
11616;SDS011;5864;52.998;9.068;2022-11-14T10:31:07;44.83;;;25.30;;
11616;SDS011;5864;52.998;9.068;2022-11-14T10:33:45;44.93;;;24.17;;
11616;SDS011;5864;52.998;9.068;2022-11-14T10:36:25;48.80;;;25.27;;
11616;SDS011;5864;52.998;9.068;2022-11-14T10:39:03;44.80;;;25.53;;
11616;SDS011;5864;52.998;9.068;2022-11-14T10:41:37;43.50;;;24.73;;
11616;SDS011;5864;52.998;9.068;2022-11-14T10:44:07;42.90;;;25.27;;
11616;SDS011;5864;52.998;9.068;2022-11-14T10:46:40;46.83;;;24.03;;
11616;SDS011;5864;52.998;9.068;2022-11-14T10:49:12;49.07;;;26.10;;
11616;SDS011;5864;52.998;9.068;2022-11-14T10:51:45;53.17;;;26.63;;
11616;SDS011;5864;52.998;9.068;2022-11-14T10:54:16;49.87;;;26.00;;
11616;SDS011;5864;52.998;9.068;2022-11-14T10:56:48;42.73;;;23.20;;
11616;SDS011;5864;52.998;9.068;2022-11-14T10:59:16;46.70;;;25.17;;
11616;SDS011;5864;52.998;9.068;2022-11-14T11:01:45;44.77;;;24.53;;
11616;SDS011;5864;52.998;9.068;2022-11-14T11:04:21;47.30;;;25.87;;
11616;SDS011;5864;52.998;9.068;2022-11-14T11:06:54;42.43;;;24.60;;
11616;SDS011;5864;52.998;9.068;2022-11-14T11:09:23;46.70;;;24.87;;
11616;SDS011;5864;52.998;9.068;2022-11-14T11:12:13;48.03;;;24.83;;
11616;SDS011;5864;52.998;9.068;2022-11-14T11:14:42;45.70;;;24.87;;
11616;SDS011;5864;52.998;9.068;2022-11-14T11:17:20;42.80;;;25.50;;
11616;SDS011;5864;52.998;9.068;2022-11-14T11:19:49;44.43;;;24.60;;
11616;SDS011;5864;52.998;9.068;2022-11-14T11:22:25;45.40;;;25.37;;
11616;SDS011;5864;52.998;9.068;2022-11-14T11:25:01;47.17;;;24.97;;
11616;SDS011;5864;52.998;9.068;2022-11-14T11:27:29;48.30;;;24.83;;
11616;SDS011;5864;52.998;9.068;2022-11-14T11:30:05;45.27;;;24.00;;
11616;SDS011;5864;52.998;9.068;2022-11-14T11:32:41;47.07;;;25.60;;
11616;SDS011;5864;52.998;9.068;2022-11-14T11:35:10;47.67;;;25.93;;
11616;SDS011;5864;52.998;9.068;2022-11-14T11:37:42;43.47;;;23.80;;
11616;SDS011;5864;52.998;9.068;2022-11-14T11:40:15;45.77;;;24.70;;
11616;SDS011;5864;52.998;9.068;2022-11-14T11:42:46;44.10;;;24.33;;
11616;SDS011;5864;52.998;9.068;2022-11-14T11:45:17;42.97;;;24.47;;
11616;SDS011;5864;52.998;9.068;2022-11-14T11:47:47;46.23;;;24.67;;
11616;SDS011;5864;52.998;9.068;2022-11-14T11:50:22;44.60;;;24.20;;
11616;SDS011;5864;52.998;9.068;2022-11-14T11:52:53;44.90;;;24.23;;
11616;SDS011;5864;52.998;9.068;2022-11-14T11:55:28;45.03;;;25.10;;
11616;SDS011;5864;52.998;9.068;2022-11-14T11:58:00;47.67;;;25.17;;
11616;SDS011;5864;52.998;9.068;2022-11-14T12:00:31;44.40;;;25.50;;
11616;SDS011;5864;52.998;9.068;2022-11-14T12:02:59;47.50;;;25.90;;
11616;SDS011;5864;52.998;9.068;2022-11-14T12:05:30;46.23;;;25.50;;
11616;SDS011;5864;52.998;9.068;2022-11-14T12:08:05;46.03;;;25.40;;
11616;SDS011;5864;52.998;9.068;2022-11-14T12:10:38;44.27;;;25.00;;
11616;SDS011;5864;52.998;9.068;2022-11-14T12:13:14;45.73;;;24.67;;
11616;SDS011;5864;52.998;9.068;2022-11-14T12:16:03;44.60;;;24.53;;
11616;SDS011;5864;52.998;9.068;2022-11-14T12:18:42;46.90;;;24.30;;
11616;SDS011;5864;52.998;9.068;2022-11-14T12:21:38;40.17;;;23.60;;
11616;SDS011;5864;52.998;9.068;2022-11-14T12:27:34;42.97;;;25.00;;
11616;SDS011;5864;52.998;9.068;2022-11-14T12:30:11;43.60;;;23.73;;
11616;SDS011;5864;52.998;9.068;2022-11-14T12:32:43;43.30;;;23.07;;
11616;SDS011;5864;52.998;9.068;2022-11-14T12:35:17;44.27;;;24.13;;
11616;SDS011;5864;52.998;9.068;2022-11-14T12:37:48;43.43;;;25.43;;
11616;SDS011;5864;52.998;9.068;2022-11-14T12:40:26;41.73;;;24.07;;
11616;SDS011;5864;52.998;9.068;2022-11-14T12:42:57;49.00;;;27.50;;
11616;SDS011;5864;52.998;9.068;2022-11-14T12:48:22;42.20;;;23.10;;
11616;SDS011;5864;52.998;9.068;2022-11-14T12:50:59;43.37;;;24.80;;
11616;SDS011;5864;52.998;9.068;2022-11-14T12:53:37;42.77;;;24.93;;
11616;SDS011;5864;52.998;9.068;2022-11-14T12:56:10;43.10;;;24.63;;
11616;SDS011;5864;52.998;9.068;2022-11-14T12:59:03;41.80;;;24.30;;
11616;SDS011;5864;52.998;9.068;2022-11-14T13:01:46;39.97;;;23.30;;
11616;SDS011;5864;52.998;9.068;2022-11-14T13:04:25;41.30;;;23.70;;
11616;SDS011;5864;52.998;9.068;2022-11-14T13:07:03;38.90;;;23.07;;
11616;SDS011;5864;52.998;9.068;2022-11-14T13:09:52;39.53;;;23.30;;
11616;SDS011;5864;52.998;9.068;2022-11-14T13:12:28;36.70;;;22.77;;
11616;SDS011;5864;52.998;9.068;2022-11-14T13:15:23;37.53;;;23.43;;
11616;SDS011;5864;52.998;9.068;2022-11-14T13:18:20;36.97;;;22.33;;
11616;SDS011;5864;52.998;9.068;2022-11-14T13:21:18;35.70;;;22.30;;
11616;SDS011;5864;52.998;9.068;2022-11-14T13:24:05;36.37;;;21.63;;
11616;SDS011;5864;52.998;9.068;2022-11-14T13:26:44;35.47;;;21.13;;
11616;SDS011;5864;52.998;9.068;2022-11-14T13:31:59;36.07;;;22.10;;
11616;SDS011;5864;52.998;9.068;2022-11-14T13:37:17;35.30;;;22.17;;
11616;SDS011;5864;52.998;9.068;2022-11-14T13:39:50;34.80;;;21.90;;
11616;SDS011;5864;52.998;9.068;2022-11-14T13:42:26;37.17;;;22.77;;
11616;SDS011;5864;52.998;9.068;2022-11-14T13:48:15;36.90;;;22.63;;
11616;SDS011;5864;52.998;9.068;2022-11-14T13:50:55;34.10;;;21.80;;
11616;SDS011;5864;52.998;9.068;2022-11-14T13:53:26;37.30;;;22.17;;
11616;SDS011;5864;52.998;9.068;2022-11-14T13:55:59;36.37;;;22.03;;
11616;SDS011;5864;52.998;9.068;2022-11-14T13:58:35;34.10;;;21.07;;
11616;SDS011;5864;52.998;9.068;2022-11-14T14:01:21;31.23;;;20.73;;
11616;SDS011;5864;52.998;9.068;2022-11-14T14:04:07;32.80;;;20.70;;
11616;SDS011;5864;52.998;9.068;2022-11-14T14:06:47;34.23;;;22.23;;
11616;SDS011;5864;52.998;9.068;2022-11-14T14:09:25;33.33;;;21.50;;
11616;SDS011;5864;52.998;9.068;2022-11-14T14:12:05;33.10;;;21.90;;
11616;SDS011;5864;52.998;9.068;2022-11-14T14:14:47;37.63;;;22.67;;
11616;SDS011;5864;52.998;9.068;2022-11-14T14:17:25;32.40;;;20.80;;
11616;SDS011;5864;52.998;9.068;2022-11-14T14:20:02;34.20;;;20.57;;
11616;SDS011;5864;52.998;9.068;2022-11-14T14:22:44;32.13;;;20.53;;
11616;SDS011;5864;52.998;9.068;2022-11-14T14:25:22;32.13;;;21.30;;
11616;SDS011;5864;52.998;9.068;2022-11-14T14:27:55;37.57;;;21.50;;
11616;SDS011;5864;52.998;9.068;2022-11-14T14:30:31;33.63;;;20.93;;
11616;SDS011;5864;52.998;9.068;2022-11-14T14:35:52;34.27;;;21.87;;
11616;SDS011;5864;52.998;9.068;2022-11-14T14:38:23;31.93;;;20.90;;
11616;SDS011;5864;52.998;9.068;2022-11-14T14:40:52;32.57;;;20.47;;
11616;SDS011;5864;52.998;9.068;2022-11-14T14:43:22;31.53;;;20.13;;
11616;SDS011;5864;52.998;9.068;2022-11-14T14:45:53;33.30;;;20.67;;
11616;SDS011;5864;52.998;9.068;2022-11-14T14:48:21;30.93;;;20.97;;
11616;SDS011;5864;52.998;9.068;2022-11-14T14:50:52;30.53;;;19.37;;
11616;SDS011;5864;52.998;9.068;2022-11-14T14:53:22;33.40;;;20.97;;
11616;SDS011;5864;52.998;9.068;2022-11-14T14:55:52;31.20;;;20.47;;
11616;SDS011;5864;52.998;9.068;2022-11-14T14:58:25;33.57;;;21.40;;
11616;SDS011;5864;52.998;9.068;2022-11-14T15:00:55;30.50;;;20.37;;
11616;SDS011;5864;52.998;9.068;2022-11-14T15:03:26;32.93;;;20.70;;
11616;SDS011;5864;52.998;9.068;2022-11-14T15:05:59;33.17;;;20.93;;
11616;SDS011;5864;52.998;9.068;2022-11-14T15:08:29;32.90;;;21.00;;
11616;SDS011;5864;52.998;9.068;2022-11-14T15:11:03;33.23;;;20.67;;
11616;SDS011;5864;52.998;9.068;2022-11-14T15:13:31;31.80;;;20.90;;
11616;SDS011;5864;52.998;9.068;2022-11-14T15:16:01;33.37;;;20.67;;